createdAt,value
2023-01-18T00:00:22.381Z,984.98
2023-01-18T00:01:22.314Z,984.98
2023-01-18T00:02:22.273Z,985.02
2023-01-18T00:03:22.247Z,985.02
2023-01-18T00:04:22.214Z,985.01
2023-01-18T00:05:22.183Z,985.01
2023-01-18T00:06:22.153Z,984.99
2023-01-18T00:07:22.150Z,985.00
2023-01-18T00:08:22.105Z,985.00
2023-01-18T00:09:22.067Z,984.97
2023-01-18T00:10:22.042Z,984.99
2023-01-18T00:11:22.011Z,985.00
2023-01-18T00:12:21.981Z,984.98
2023-01-18T00:13:21.946Z,984.98
2023-01-18T00:14:21.923Z,984.99
2023-01-18T00:15:21.909Z,985.00
2023-01-18T00:16:21.962Z,984.96
2023-01-18T00:17:21.827Z,984.99
2023-01-18T00:18:21.806Z,984.96
2023-01-18T00:19:21.775Z,984.98
2023-01-18T00:20:21.754Z,984.98
2023-01-18T00:21:21.719Z,984.96
2023-01-18T00:22:21.685Z,984.97
2023-01-18T00:23:21.658Z,985.00
2023-01-18T00:24:21.628Z,985.01
2023-01-18T00:25:21.607Z,984.98
2023-01-18T00:26:21.572Z,985.02
2023-01-18T00:27:21.546Z,985.05
2023-01-18T00:28:21.521Z,985.03
2023-01-18T00:29:21.481Z,985.03
2023-01-18T00:30:21.465Z,985.07
2023-01-18T00:31:21.638Z,985.03
2023-01-18T00:32:21.395Z,985.04
2023-01-18T00:33:21.366Z,985.02
2023-01-18T00:34:21.330Z,985.06
2023-01-18T00:35:21.303Z,985.07
2023-01-18T00:36:21.278Z,985.08
2023-01-18T00:37:21.239Z,985.06
2023-01-18T00:38:21.228Z,985.13
2023-01-18T00:39:21.194Z,985.14
2023-01-18T00:40:21.156Z,985.13
2023-01-18T00:41:21.124Z,985.15
2023-01-18T00:42:21.101Z,985.13
2023-01-18T00:43:21.066Z,985.12
2023-01-18T00:44:21.039Z,985.08
2023-01-18T00:45:21.011Z,985.11
2023-01-18T00:46:21.008Z,985.13
2023-01-18T00:47:21.059Z,985.13
2023-01-18T00:48:20.926Z,985.14
2023-01-18T00:49:20.892Z,985.14
2023-01-18T00:50:20.861Z,985.15
2023-01-18T00:51:20.833Z,985.16
2023-01-18T00:52:20.810Z,985.12
2023-01-18T00:53:20.769Z,985.13
2023-01-18T00:54:20.749Z,985.12
2023-01-18T00:55:20.712Z,985.13
2023-01-18T00:56:20.690Z,985.13
2023-01-18T00:57:20.657Z,985.13
2023-01-18T00:58:20.628Z,985.15
2023-01-18T00:59:20.596Z,985.13
2023-01-18T01:00:20.580Z,985.11
2023-01-18T01:01:20.708Z,985.09
2023-01-18T01:02:20.582Z,985.07
2023-01-18T01:03:20.511Z,985.09
2023-01-18T01:04:20.463Z,985.09
2023-01-18T01:05:20.416Z,985.03
2023-01-18T01:06:20.397Z,985.02
2023-01-18T01:07:20.359Z,985.01
2023-01-18T01:08:20.335Z,985.01
2023-01-18T01:09:20.333Z,985.02
2023-01-18T01:10:20.272Z,984.99
2023-01-18T01:11:20.252Z,985.01
2023-01-18T01:12:20.214Z,985.03
2023-01-18T01:13:20.182Z,985.04
2023-01-18T01:14:20.156Z,985.06
2023-01-18T01:15:20.132Z,985.03
2023-01-18T01:16:20.111Z,985.08
2023-01-18T01:17:20.065Z,985.06
2023-01-18T01:18:20.042Z,985.11
2023-01-18T01:19:20.024Z,985.07
2023-01-18T01:20:19.992Z,985.11
2023-01-18T01:21:19.945Z,985.12
2023-01-18T01:22:19.947Z,985.15
2023-01-18T01:23:19.890Z,985.19
2023-01-18T01:24:19.862Z,985.17
2023-01-18T01:25:19.824Z,985.16
2023-01-18T01:26:19.804Z,985.16
2023-01-18T01:27:19.787Z,985.19
2023-01-18T01:28:19.744Z,985.20
2023-01-18T01:29:19.724Z,985.18
2023-01-18T01:30:19.689Z,985.18
2023-01-18T01:31:19.648Z,985.16
2023-01-18T01:32:19.632Z,985.24
2023-01-18T01:33:19.619Z,985.25
2023-01-18T01:34:19.564Z,985.28
2023-01-18T01:35:19.553Z,985.26
2023-01-18T01:36:19.512Z,985.31
2023-01-18T01:37:19.483Z,985.36
2023-01-18T01:38:19.448Z,985.31
2023-01-18T01:39:19.413Z,985.32
2023-01-18T01:40:19.392Z,985.36
2023-01-18T01:41:19.562Z,985.36
2023-01-18T01:42:19.323Z,985.36
2023-01-18T01:43:19.294Z,985.34
2023-01-18T01:44:19.268Z,985.35
2023-01-18T01:45:19.237Z,985.33
2023-01-18T01:46:19.208Z,985.35
2023-01-18T01:47:19.195Z,985.36
2023-01-18T01:48:19.152Z,985.36
2023-01-18T01:49:19.116Z,985.38
2023-01-18T01:50:19.101Z,985.37
2023-01-18T01:51:19.081Z,985.35
2023-01-18T01:52:19.035Z,985.31
2023-01-18T01:53:19.002Z,985.33
2023-01-18T01:54:18.975Z,985.35
2023-01-18T01:55:18.941Z,985.36
2023-01-18T01:56:18.909Z,985.42
2023-01-18T01:57:18.879Z,985.47
2023-01-18T01:58:18.855Z,985.43
2023-01-18T01:59:18.850Z,985.44
2023-01-18T02:00:18.801Z,985.46
2023-01-18T02:01:18.928Z,985.49
2023-01-18T02:02:18.771Z,985.44
2023-01-18T02:03:18.707Z,985.44
2023-01-18T02:04:18.684Z,985.43
2023-01-18T02:05:18.645Z,985.42
2023-01-18T02:06:18.615Z,985.43
2023-01-18T02:07:18.603Z,985.45
2023-01-18T02:08:18.555Z,985.44
2023-01-18T02:09:18.525Z,985.43
2023-01-18T02:10:18.496Z,985.41
2023-01-18T02:11:18.468Z,985.45
2023-01-18T02:12:18.439Z,985.42
2023-01-18T02:13:18.406Z,985.44
2023-01-18T02:14:18.378Z,985.39
2023-01-18T02:15:20.098Z,985.38
2023-01-18T02:16:18.404Z,985.37
2023-01-18T02:17:18.306Z,985.41
2023-01-18T02:18:18.267Z,985.39
2023-01-18T02:19:18.227Z,985.37
2023-01-18T02:20:18.203Z,985.36
2023-01-18T02:21:18.170Z,985.37
2023-01-18T02:22:18.147Z,985.39
2023-01-18T02:23:18.139Z,985.36
2023-01-18T02:24:18.095Z,985.38
2023-01-18T02:25:18.055Z,985.41
2023-01-18T02:26:18.024Z,985.40
2023-01-18T02:27:18.000Z,985.42
2023-01-18T02:28:17.971Z,985.36
2023-01-18T02:29:17.949Z,985.34
2023-01-18T02:30:17.906Z,985.34
2023-01-18T02:31:17.881Z,985.35
2023-01-18T02:32:17.845Z,985.39
2023-01-18T02:33:17.815Z,985.43
2023-01-18T02:34:17.789Z,985.44
2023-01-18T02:35:17.763Z,985.41
2023-01-18T02:36:17.729Z,985.44
2023-01-18T02:37:17.693Z,985.47
2023-01-18T02:38:17.668Z,985.51
2023-01-18T02:39:17.658Z,985.52
2023-01-18T02:40:17.614Z,985.52
2023-01-18T02:41:17.580Z,985.50
2023-01-18T02:42:17.549Z,985.51
2023-01-18T02:43:17.515Z,985.55
2023-01-18T02:44:17.500Z,985.50
2023-01-18T02:45:17.459Z,985.48
2023-01-18T02:46:17.445Z,985.52
2023-01-18T02:47:17.396Z,985.50
2023-01-18T02:48:17.384Z,985.51
2023-01-18T02:49:17.335Z,985.52
2023-01-18T02:50:17.318Z,985.47
2023-01-18T02:51:17.285Z,985.51
2023-01-18T02:52:17.254Z,985.51
2023-01-18T02:53:17.224Z,985.52
2023-01-18T02:54:17.197Z,985.56
2023-01-18T02:55:17.191Z,985.55
2023-01-18T02:56:17.168Z,985.57
2023-01-18T02:57:17.102Z,985.60
2023-01-18T02:58:17.076Z,985.62
2023-01-18T02:59:17.051Z,985.61
2023-01-18T03:00:17.016Z,985.58
2023-01-18T03:01:17.135Z,985.60
2023-01-18T03:02:17.027Z,985.61
2023-01-18T03:03:16.923Z,985.60
2023-01-18T03:04:16.915Z,985.58
2023-01-18T03:05:16.866Z,985.61
2023-01-18T03:06:16.838Z,985.64
2023-01-18T03:07:16.804Z,985.66
2023-01-18T03:08:16.778Z,985.65
2023-01-18T03:09:16.748Z,985.65
2023-01-18T03:10:16.722Z,985.67
2023-01-18T03:11:16.707Z,985.67
2023-01-18T03:12:16.663Z,985.64
2023-01-18T03:13:16.629Z,985.65
2023-01-18T03:14:16.598Z,985.66
2023-01-18T03:15:16.572Z,985.69
2023-01-18T03:16:16.541Z,985.67
2023-01-18T03:17:16.510Z,985.65
2023-01-18T03:18:16.482Z,985.66
2023-01-18T03:19:16.449Z,985.69
2023-01-18T03:20:16.422Z,985.65
2023-01-18T03:21:16.385Z,985.64
2023-01-18T03:22:16.373Z,985.62
2023-01-18T03:23:16.331Z,985.65
2023-01-18T03:24:16.306Z,985.63
2023-01-18T03:25:16.269Z,985.63
2023-01-18T03:26:16.246Z,985.61
2023-01-18T03:27:16.231Z,985.64
2023-01-18T03:28:16.187Z,985.63
2023-01-18T03:29:16.170Z,985.64
2023-01-18T03:30:16.124Z,985.66
2023-01-18T03:31:16.151Z,985.63
2023-01-18T03:32:16.067Z,985.67
2023-01-18T03:33:16.035Z,985.68
2023-01-18T03:34:16.012Z,985.72
2023-01-18T03:35:15.981Z,985.70
2023-01-18T03:36:15.947Z,985.70
2023-01-18T03:37:15.917Z,985.70
2023-01-18T03:38:15.898Z,985.72
2023-01-18T03:39:15.862Z,985.74
2023-01-18T03:40:15.828Z,985.73
2023-01-18T03:41:15.801Z,985.74
2023-01-18T03:42:15.773Z,985.75
2023-01-18T03:43:15.754Z,985.74
2023-01-18T03:44:15.710Z,985.74
2023-01-18T03:45:15.686Z,985.77
2023-01-18T03:46:15.685Z,985.74
2023-01-18T03:47:15.619Z,985.73
2023-01-18T03:48:15.593Z,985.74
2023-01-18T03:49:15.553Z,985.78
2023-01-18T03:50:15.532Z,985.78
2023-01-18T03:51:15.522Z,985.80
2023-01-18T03:52:15.481Z,985.81
2023-01-18T03:53:15.445Z,985.81
2023-01-18T03:54:15.414Z,985.82
2023-01-18T03:55:15.404Z,985.80
2023-01-18T03:56:15.349Z,985.83
2023-01-18T03:57:15.333Z,985.85
2023-01-18T03:58:15.294Z,985.86
2023-01-18T03:59:15.275Z,985.84
2023-01-18T04:00:15.246Z,985.84
2023-01-18T04:01:15.291Z,985.86
2023-01-18T04:02:15.172Z,985.84
2023-01-18T04:03:15.215Z,985.90
2023-01-18T04:04:15.111Z,985.97
2023-01-18T04:05:15.081Z,985.98
2023-01-18T04:06:15.056Z,986.03
2023-01-18T04:07:15.026Z,986.04
2023-01-18T04:08:14.989Z,986.05
2023-01-18T04:09:14.958Z,986.04
2023-01-18T04:10:14.941Z,986.08
2023-01-18T04:11:14.900Z,986.06
2023-01-18T04:12:14.877Z,986.05
2023-01-18T04:13:14.840Z,986.05
2023-01-18T04:14:14.817Z,986.05
2023-01-18T04:15:14.820Z,986.03
2023-01-18T04:16:14.861Z,986.03
2023-01-18T04:17:14.725Z,986.08
2023-01-18T04:18:14.693Z,986.06
2023-01-18T04:19:14.659Z,986.04
2023-01-18T04:20:14.633Z,986.06
2023-01-18T04:21:14.605Z,986.01
2023-01-18T04:22:14.578Z,986.07
2023-01-18T04:23:14.541Z,986.07
2023-01-18T04:24:14.520Z,986.03
2023-01-18T04:25:14.486Z,986.08
2023-01-18T04:26:14.474Z,986.08
2023-01-18T04:27:14.424Z,986.10
2023-01-18T04:28:14.399Z,986.10
2023-01-18T04:29:14.379Z,986.15
2023-01-18T04:30:14.337Z,986.19
2023-01-18T04:31:14.416Z,986.18
2023-01-18T04:32:14.281Z,986.18
2023-01-18T04:33:14.249Z,986.20
2023-01-18T04:34:14.219Z,986.21
2023-01-18T04:35:14.194Z,986.23
2023-01-18T04:36:14.156Z,986.22
2023-01-18T04:37:14.130Z,986.22
2023-01-18T04:38:14.099Z,986.22
2023-01-18T04:39:14.070Z,986.18
2023-01-18T04:40:14.036Z,986.20
2023-01-18T04:41:14.010Z,986.19
2023-01-18T04:42:13.979Z,986.21
2023-01-18T04:43:13.953Z,986.20
2023-01-18T04:44:13.916Z,986.25
2023-01-18T04:45:13.899Z,986.27
2023-01-18T04:46:13.931Z,986.23
2023-01-18T04:47:13.851Z,986.28
2023-01-18T04:48:13.800Z,986.27
2023-01-18T04:49:13.769Z,986.29
2023-01-18T04:50:13.745Z,986.28
2023-01-18T04:51:13.726Z,986.27
2023-01-18T04:52:13.681Z,986.27
2023-01-18T04:53:13.661Z,986.28
2023-01-18T04:54:13.630Z,986.29
2023-01-18T04:55:13.593Z,986.26
2023-01-18T04:56:13.560Z,986.29
2023-01-18T04:57:13.540Z,986.30
2023-01-18T04:58:13.504Z,986.34
2023-01-18T04:59:13.477Z,986.32
2023-01-18T05:00:13.439Z,986.31
2023-01-18T05:01:13.501Z,986.30
2023-01-18T05:02:13.463Z,986.30
2023-01-18T05:03:13.372Z,986.30
2023-01-18T05:04:13.353Z,986.31
2023-01-18T05:05:13.304Z,986.37
2023-01-18T05:06:13.271Z,986.35
2023-01-18T05:07:13.256Z,986.34
2023-01-18T05:08:13.203Z,986.36
2023-01-18T05:09:13.189Z,986.38
2023-01-18T05:10:13.143Z,986.42
2023-01-18T05:11:13.114Z,986.40
2023-01-18T05:12:13.082Z,986.44
2023-01-18T05:13:13.054Z,986.41
2023-01-18T05:14:13.026Z,986.43
2023-01-18T05:15:12.994Z,986.42
2023-01-18T05:16:13.042Z,986.45
2023-01-18T05:17:12.933Z,986.47
2023-01-18T05:18:12.899Z,986.46
2023-01-18T05:19:12.897Z,986.48
2023-01-18T05:20:12.841Z,986.47
2023-01-18T05:21:12.819Z,986.45
2023-01-18T05:22:12.786Z,986.46
2023-01-18T05:23:12.757Z,986.48
2023-01-18T05:24:12.722Z,986.48
2023-01-18T05:25:12.699Z,986.46
2023-01-18T05:26:12.667Z,986.47
2023-01-18T05:27:12.639Z,986.51
2023-01-18T05:28:12.604Z,986.50
2023-01-18T05:29:12.580Z,986.56
2023-01-18T05:30:12.558Z,986.56
2023-01-18T05:31:12.587Z,986.57
2023-01-18T05:32:12.488Z,986.60
2023-01-18T05:33:12.477Z,986.56
2023-01-18T05:34:12.430Z,986.57
2023-01-18T05:35:12.419Z,986.59
2023-01-18T05:36:12.373Z,986.61
2023-01-18T05:37:12.341Z,986.61
2023-01-18T05:38:12.306Z,986.59
2023-01-18T05:39:12.278Z,986.62
2023-01-18T05:40:12.247Z,986.63
2023-01-18T05:41:12.221Z,986.66
2023-01-18T05:42:12.189Z,986.67
2023-01-18T05:43:12.162Z,986.67
2023-01-18T05:44:12.128Z,986.71
2023-01-18T05:45:12.106Z,986.71
2023-01-18T05:46:12.150Z,986.75
2023-01-18T05:47:12.036Z,986.80
2023-01-18T05:48:12.008Z,986.79
2023-01-18T05:49:11.981Z,986.82
2023-01-18T05:50:11.950Z,986.82
2023-01-18T05:51:11.958Z,986.82
2023-01-18T05:52:11.892Z,986.80
2023-01-18T05:53:11.869Z,986.81
2023-01-18T05:54:11.826Z,986.83
2023-01-18T05:55:11.804Z,986.81
2023-01-18T05:56:11.786Z,986.84
2023-01-18T05:57:11.763Z,986.82
2023-01-18T05:58:11.717Z,986.85
2023-01-18T05:59:11.681Z,986.89
2023-01-18T06:00:11.644Z,986.90
2023-01-18T06:01:11.703Z,986.88
2023-01-18T06:02:11.597Z,986.88
2023-01-18T06:03:11.563Z,986.85
2023-01-18T06:04:11.618Z,986.90
2023-01-18T06:05:11.512Z,986.94
2023-01-18T06:06:11.467Z,986.90
2023-01-18T06:07:11.471Z,986.91
2023-01-18T06:08:11.414Z,986.96
2023-01-18T06:09:11.387Z,986.99
2023-01-18T06:10:11.353Z,987.00
2023-01-18T06:11:11.324Z,987.02
2023-01-18T06:12:11.299Z,987.06
2023-01-18T06:13:11.269Z,987.02
2023-01-18T06:14:11.235Z,987.05
2023-01-18T06:15:11.204Z,987.01
2023-01-18T06:16:11.204Z,987.05
2023-01-18T06:17:11.147Z,987.08
2023-01-18T06:18:11.136Z,987.09
2023-01-18T06:19:11.096Z,987.10
2023-01-18T06:20:11.051Z,987.15
2023-01-18T06:21:11.028Z,987.09
2023-01-18T06:22:11.008Z,987.17
2023-01-18T06:23:10.989Z,987.20
2023-01-18T06:24:10.941Z,987.20
2023-01-18T06:25:10.954Z,987.18
2023-01-18T06:26:10.873Z,987.21
2023-01-18T06:27:10.847Z,987.18
2023-01-18T06:28:10.819Z,987.20
2023-01-18T06:29:10.823Z,987.19
2023-01-18T06:30:10.757Z,987.18
2023-01-18T06:31:10.736Z,987.19
2023-01-18T06:32:10.691Z,987.19
2023-01-18T06:33:10.663Z,987.21
2023-01-18T06:34:10.632Z,987.23
2023-01-18T06:35:10.612Z,987.26
2023-01-18T06:36:10.577Z,987.26
2023-01-18T06:37:10.547Z,987.27
2023-01-18T06:38:10.519Z,987.30
2023-01-18T06:39:10.508Z,987.35
2023-01-18T06:40:10.459Z,987.34
2023-01-18T06:41:10.428Z,987.39
2023-01-18T06:42:10.390Z,987.39
2023-01-18T06:43:10.399Z,987.42
2023-01-18T06:44:10.341Z,987.41
2023-01-18T06:45:10.314Z,987.41
2023-01-18T06:46:10.319Z,987.43
2023-01-18T06:47:10.245Z,987.45
2023-01-18T06:48:10.217Z,987.44
2023-01-18T06:49:10.191Z,987.50
2023-01-18T06:50:10.154Z,987.49
2023-01-18T06:51:10.131Z,987.51
2023-01-18T06:52:10.096Z,987.54
2023-01-18T06:53:10.068Z,987.53
2023-01-18T06:54:10.042Z,987.57
2023-01-18T06:55:10.031Z,987.55
2023-01-18T06:56:09.981Z,987.61
2023-01-18T06:57:09.955Z,987.60
2023-01-18T06:58:09.920Z,987.60
2023-01-18T06:59:09.896Z,987.61
2023-01-18T07:00:09.858Z,987.62
2023-01-18T07:01:09.972Z,987.65
2023-01-18T07:02:09.905Z,987.69
2023-01-18T07:03:09.768Z,987.69
2023-01-18T07:04:09.893Z,987.71
2023-01-18T07:05:09.704Z,987.73
2023-01-18T07:06:09.682Z,987.74
2023-01-18T07:07:09.655Z,987.73
2023-01-18T07:08:09.630Z,987.81
2023-01-18T07:09:09.630Z,987.75
2023-01-18T07:10:09.559Z,987.75
2023-01-18T07:11:09.557Z,987.73
2023-01-18T07:12:09.506Z,987.73
2023-01-18T07:13:09.471Z,987.74
2023-01-18T07:14:09.439Z,987.75
2023-01-18T07:15:20.829Z,987.79
2023-01-18T07:16:09.391Z,987.84
2023-01-18T07:17:09.349Z,987.84
2023-01-18T07:18:09.319Z,987.85
2023-01-18T07:19:09.294Z,987.87
2023-01-18T07:20:09.257Z,987.89
2023-01-18T07:21:09.233Z,987.89
2023-01-18T07:22:09.196Z,987.92
2023-01-18T07:23:09.171Z,987.93
2023-01-18T07:24:09.141Z,987.93
2023-01-18T07:25:09.116Z,987.97
2023-01-18T07:26:09.078Z,987.96
2023-01-18T07:27:09.089Z,988.00
2023-01-18T07:28:09.015Z,987.97
2023-01-18T07:29:09.006Z,987.98
2023-01-18T07:30:08.962Z,988.00
2023-01-18T07:31:08.932Z,988.00
2023-01-18T07:32:08.964Z,987.98
2023-01-18T07:33:08.875Z,988.00
2023-01-18T07:34:08.846Z,987.98
2023-01-18T07:35:08.812Z,987.99
2023-01-18T07:36:08.786Z,988.01
2023-01-18T07:37:08.751Z,988.05
2023-01-18T07:38:08.730Z,988.05
2023-01-18T07:39:08.692Z,988.10
2023-01-18T07:40:08.669Z,988.14
2023-01-18T07:41:08.641Z,988.20
2023-01-18T07:42:08.605Z,988.19
2023-01-18T07:43:08.625Z,988.23
2023-01-18T07:44:08.541Z,988.24
2023-01-18T07:45:08.513Z,988.28
2023-01-18T07:46:08.564Z,988.28
2023-01-18T07:47:08.460Z,988.31
2023-01-18T07:48:08.423Z,988.26
2023-01-18T07:49:08.394Z,988.31
2023-01-18T07:50:08.365Z,988.31
2023-01-18T07:51:08.351Z,988.31
2023-01-18T07:52:08.299Z,988.31
2023-01-18T07:53:08.273Z,988.34
2023-01-18T07:54:08.240Z,988.32
2023-01-18T07:55:08.229Z,988.36
2023-01-18T07:56:08.186Z,988.36
2023-01-18T07:57:08.157Z,988.41
2023-01-18T07:58:08.117Z,988.41
2023-01-18T07:59:08.122Z,988.51
2023-01-18T08:00:08.064Z,988.46
2023-01-18T08:01:08.206Z,988.45
2023-01-18T08:02:08.103Z,988.48
2023-01-18T08:03:08.071Z,988.47
2023-01-18T08:04:07.938Z,988.48
2023-01-18T08:05:07.923Z,988.51
2023-01-18T08:06:07.885Z,988.52
2023-01-18T08:07:07.861Z,988.50
2023-01-18T08:08:09.141Z,988.53
2023-01-18T08:09:07.792Z,988.57
2023-01-18T08:10:07.767Z,988.55
2023-01-18T08:11:07.738Z,988.58
2023-01-18T08:12:07.707Z,988.60
2023-01-18T08:13:07.686Z,988.61
2023-01-18T08:14:07.638Z,988.63
2023-01-18T08:15:07.652Z,988.66
2023-01-18T08:16:07.648Z,988.67
2023-01-18T08:17:07.555Z,988.70
2023-01-18T08:18:07.519Z,988.68
2023-01-18T08:19:07.496Z,988.65
2023-01-18T08:20:07.469Z,988.68
2023-01-18T08:21:07.441Z,988.64
2023-01-18T08:22:07.407Z,988.70
2023-01-18T08:23:07.375Z,988.70
2023-01-18T08:24:07.341Z,988.70
2023-01-18T08:25:07.314Z,988.74
2023-01-18T08:26:07.283Z,988.71
2023-01-18T08:27:07.259Z,988.76
2023-01-18T08:28:07.222Z,988.75
2023-01-18T08:29:07.213Z,988.76
2023-01-18T08:30:07.164Z,988.77
2023-01-18T08:31:07.289Z,988.80
2023-01-18T08:32:07.120Z,988.84
2023-01-18T08:33:07.080Z,988.87
2023-01-18T08:34:07.077Z,988.91
2023-01-18T08:35:07.017Z,988.88
2023-01-18T08:36:06.992Z,988.89
2023-01-18T08:37:06.953Z,988.92
2023-01-18T08:38:06.923Z,988.92
2023-01-18T08:39:06.893Z,988.98
2023-01-18T08:40:06.873Z,989.00
2023-01-18T08:41:06.839Z,988.98
2023-01-18T08:42:06.820Z,989.03
2023-01-18T08:43:06.780Z,989.05
2023-01-18T08:44:06.749Z,989.06
2023-01-18T08:45:06.711Z,989.10
2023-01-18T08:46:06.763Z,989.05
2023-01-18T08:47:06.685Z,989.09
2023-01-18T08:48:06.636Z,989.13
2023-01-18T08:49:06.594Z,989.12
2023-01-18T08:50:06.570Z,989.16
2023-01-18T08:51:06.531Z,989.21
2023-01-18T08:52:06.507Z,989.19
2023-01-18T08:53:06.478Z,989.23
2023-01-18T08:54:06.499Z,989.21
2023-01-18T08:55:06.415Z,989.25
2023-01-18T08:56:06.405Z,989.23
2023-01-18T08:57:06.361Z,989.26
2023-01-18T08:58:06.381Z,989.27
2023-01-18T08:59:06.311Z,989.30
2023-01-18T09:00:06.269Z,989.33
2023-01-18T09:01:06.326Z,989.38
2023-01-18T09:02:06.230Z,989.37
2023-01-18T09:03:06.263Z,989.37
2023-01-18T09:04:06.148Z,989.38
2023-01-18T09:05:06.111Z,989.41
2023-01-18T09:06:06.092Z,989.40
2023-01-18T09:07:06.059Z,989.40
2023-01-18T09:08:06.033Z,989.41
2023-01-18T09:09:05.997Z,989.39
2023-01-18T09:10:05.978Z,989.41
2023-01-18T09:11:05.955Z,989.39
2023-01-18T09:12:05.914Z,989.36
2023-01-18T09:13:05.905Z,989.41
2023-01-18T09:14:05.850Z,989.40
2023-01-18T09:15:05.822Z,989.39
2023-01-18T09:16:05.869Z,989.43
2023-01-18T09:17:05.797Z,989.45
2023-01-18T09:18:05.747Z,989.43
2023-01-18T09:19:05.724Z,989.49
2023-01-18T09:20:05.676Z,989.49
2023-01-18T09:21:05.640Z,989.49
2023-01-18T09:22:05.611Z,989.53
2023-01-18T09:23:05.585Z,989.51
2023-01-18T09:24:05.552Z,989.51
2023-01-18T09:25:05.534Z,989.49
2023-01-18T09:26:05.501Z,989.49
2023-01-18T09:27:05.458Z,989.55
2023-01-18T09:28:05.443Z,989.57
2023-01-18T09:29:05.411Z,989.54
2023-01-18T09:30:05.371Z,989.58
2023-01-18T09:31:05.406Z,989.60
2023-01-18T09:32:05.335Z,989.64
2023-01-18T09:33:05.287Z,989.62
2023-01-18T09:34:18.437Z,989.64
2023-01-18T09:35:05.251Z,989.66
2023-01-18T09:36:05.198Z,989.64
2023-01-18T09:37:05.368Z,989.70
2023-01-18T09:38:05.142Z,989.67
2023-01-18T09:39:05.104Z,989.69
2023-01-18T09:40:05.076Z,989.75
2023-01-18T09:41:05.042Z,989.73
2023-01-18T09:42:05.013Z,989.74
2023-01-18T09:43:04.982Z,989.75
2023-01-18T09:44:04.954Z,989.78
2023-01-18T09:45:04.924Z,989.80
2023-01-18T09:46:04.890Z,989.81
2023-01-18T09:47:04.903Z,989.84
2023-01-18T09:48:04.844Z,989.86
2023-01-18T09:49:04.800Z,989.90
2023-01-18T09:50:04.772Z,989.91
2023-01-18T09:51:04.766Z,989.90
2023-01-18T09:52:04.715Z,989.92
2023-01-18T09:53:04.681Z,989.94
2023-01-18T09:54:04.658Z,989.93
2023-01-18T09:55:04.622Z,989.95
2023-01-18T09:56:04.613Z,989.92
2023-01-18T09:57:04.559Z,989.92
2023-01-18T09:58:04.531Z,989.91
2023-01-18T09:59:04.498Z,989.93
2023-01-18T10:00:04.471Z,989.95
2023-01-18T10:01:04.558Z,989.95
2023-01-18T10:02:04.576Z,989.95
2023-01-18T10:03:04.382Z,989.93
2023-01-18T10:04:04.353Z,989.92
2023-01-18T10:05:04.343Z,989.97
2023-01-18T10:06:04.302Z,989.98
2023-01-18T10:07:04.284Z,989.98
2023-01-18T10:08:04.233Z,989.98
2023-01-18T10:09:04.278Z,989.96
2023-01-18T10:10:04.174Z,990.01
2023-01-18T10:11:04.147Z,989.98
2023-01-18T10:12:04.114Z,990.02
2023-01-18T10:13:04.082Z,990.04
2023-01-18T10:14:04.050Z,990.02
2023-01-18T10:15:04.026Z,990.03
2023-01-18T10:16:04.085Z,990.09
2023-01-18T10:17:03.975Z,990.07
2023-01-18T10:18:03.947Z,990.06
2023-01-18T10:19:03.908Z,990.06
2023-01-18T10:20:03.876Z,990.09
2023-01-18T10:21:03.848Z,990.12
2023-01-18T10:22:03.819Z,990.12
2023-01-18T10:23:03.873Z,990.13
2023-01-18T10:24:03.763Z,990.13
2023-01-18T10:25:03.725Z,990.18
2023-01-18T10:26:03.700Z,990.13
2023-01-18T10:27:03.677Z,990.14
2023-01-18T10:28:03.646Z,990.16
2023-01-18T10:29:03.610Z,990.15
2023-01-18T10:30:03.583Z,990.18
2023-01-18T10:31:03.546Z,990.17
2023-01-18T10:32:03.527Z,990.15
2023-01-18T10:33:03.506Z,990.15
2023-01-18T10:34:03.465Z,990.16
2023-01-18T10:35:03.436Z,990.15
2023-01-18T10:36:03.405Z,990.16
2023-01-18T10:37:03.375Z,990.15
2023-01-18T10:38:03.358Z,990.18
2023-01-18T10:39:03.354Z,990.19
2023-01-18T10:40:03.289Z,990.20
2023-01-18T10:41:03.253Z,990.18
2023-01-18T10:42:06.063Z,990.21
2023-01-18T10:43:03.189Z,990.20
2023-01-18T10:44:03.171Z,990.20
2023-01-18T10:45:03.133Z,990.23
2023-01-18T10:46:03.161Z,990.22
2023-01-18T10:47:03.073Z,990.26
2023-01-18T10:48:03.045Z,990.21
2023-01-18T10:49:03.035Z,990.23
2023-01-18T10:50:03.000Z,990.24
2023-01-18T10:51:02.954Z,990.25
2023-01-18T10:52:02.931Z,990.25
2023-01-18T10:53:02.902Z,990.29
2023-01-18T10:54:03.197Z,990.26
2023-01-18T10:55:02.863Z,990.31
2023-01-18T10:56:02.807Z,990.29
2023-01-18T10:57:02.782Z,990.30
2023-01-18T10:58:02.751Z,990.30
2023-01-18T10:59:02.729Z,990.29
2023-01-18T11:00:02.691Z,990.32
2023-01-18T11:01:02.711Z,990.34
2023-01-18T11:02:02.866Z,990.32
2023-01-18T11:03:02.809Z,990.30
2023-01-18T11:04:02.578Z,990.36
2023-01-18T11:05:02.543Z,990.35
2023-01-18T11:06:02.511Z,990.33
2023-01-18T11:07:02.482Z,990.33
2023-01-18T11:08:02.781Z,990.33
2023-01-18T11:09:02.441Z,990.34
2023-01-18T11:10:02.421Z,990.35
2023-01-18T11:11:02.391Z,990.34
2023-01-18T11:12:02.343Z,990.35
2023-01-18T11:13:02.306Z,990.35
2023-01-18T11:14:02.278Z,990.36
2023-01-18T11:15:02.251Z,990.33
2023-01-18T11:16:02.245Z,990.31
2023-01-18T11:17:02.217Z,990.34
2023-01-18T11:18:02.172Z,990.36
2023-01-18T11:19:02.121Z,990.31
2023-01-18T11:20:02.101Z,990.37
2023-01-18T11:21:02.083Z,990.35
2023-01-18T11:22:02.050Z,990.37
2023-01-18T11:23:02.488Z,990.35
2023-01-18T11:24:01.983Z,990.36
2023-01-18T11:25:01.953Z,990.34
2023-01-18T11:26:01.962Z,990.34
2023-01-18T11:27:01.931Z,990.35
2023-01-18T11:28:02.138Z,990.33
2023-01-18T11:29:01.862Z,990.32
2023-01-18T11:30:01.817Z,990.38
2023-01-18T11:31:01.784Z,990.40
2023-01-18T11:32:01.875Z,990.39
2023-01-18T11:33:01.786Z,990.33
2023-01-18T11:34:01.704Z,990.33
2023-01-18T11:35:01.654Z,990.32
2023-01-18T11:36:01.631Z,990.29
2023-01-18T11:37:01.610Z,990.33
2023-01-18T11:38:02.235Z,990.31
2023-01-18T11:39:01.541Z,990.30
2023-01-18T11:40:01.535Z,990.34
2023-01-18T11:41:01.483Z,990.34
2023-01-18T11:42:01.465Z,990.32
2023-01-18T11:43:01.465Z,990.32
2023-01-18T11:44:01.399Z,990.32
2023-01-18T11:45:01.373Z,990.33
2023-01-18T11:46:01.501Z,990.33
2023-01-18T11:47:01.306Z,990.33
2023-01-18T11:48:01.661Z,990.31
2023-01-18T11:49:01.251Z,990.35
2023-01-18T11:50:10.403Z,990.31
2023-01-18T11:51:01.187Z,990.36
2023-01-18T11:52:01.165Z,990.32
2023-01-18T11:53:01.151Z,990.34
2023-01-18T11:54:01.100Z,990.33
2023-01-18T11:55:01.071Z,990.34
2023-01-18T11:56:01.053Z,990.31
2023-01-18T11:57:01.014Z,990.36
2023-01-18T11:58:01.519Z,990.34
2023-01-18T11:59:00.977Z,990.33
2023-01-18T12:00:00.929Z,990.38
2023-01-18T12:01:00.941Z,990.34
2023-01-18T12:02:00.904Z,990.38
2023-01-18T12:03:01.185Z,990.41
2023-01-18T12:04:00.815Z,990.39
2023-01-18T12:05:00.774Z,990.40
2023-01-18T12:06:00.754Z,990.44
2023-01-18T12:07:00.720Z,990.45
2023-01-18T12:08:01.142Z,990.42
2023-01-18T12:09:00.999Z,990.42
2023-01-18T12:10:00.647Z,990.41
2023-01-18T12:11:00.610Z,990.42
2023-01-18T12:12:13.496Z,990.44
2023-01-18T12:13:00.545Z,990.44
2023-01-18T12:14:00.532Z,990.43
2023-01-18T12:15:00.512Z,990.42
2023-01-18T12:16:00.479Z,990.45
2023-01-18T12:17:00.428Z,990.43
2023-01-18T12:18:12.537Z,990.48
2023-01-18T12:19:00.393Z,990.48
2023-01-18T12:20:00.348Z,990.47
2023-01-18T12:21:00.307Z,990.46
2023-01-18T12:22:00.284Z,990.45
2023-01-18T12:23:00.253Z,990.48
2023-01-18T12:24:00.225Z,990.48
2023-01-18T12:25:00.193Z,990.49
2023-01-18T12:26:11.286Z,990.49
2023-01-18T12:27:00.139Z,990.48
2023-01-18T12:28:00.527Z,990.49